Flight Track Log - Related Links

Times and Time Zones

All times are in EDT time to prevent confusion due to time zone crossing. See the BJS542 flight status page for this flight to view local times or setup timezone preferences in your user account.


Time Position Orientation Groundspeed Altitude Reporting Facility
EDT Latitude Longitude Course Direction KTS MPH feet Rate Location/Type
Wed 06:40:08 PM 41.9167 -87.9000 155° Southeast 228 262 3,200  Level Chicago TRACON
Wed 06:41:46 PM 41.8203 -87.8300 152° Southeast 267 307 8,800 3,638 Climbing Chicago Center
Wed 06:42:48 PM 41.7292 -87.7697 154° Southeast 303 349 12,900 2,032 Climbing Chicago Center
Wed 06:43:50 PM 41.6397 -87.7136 155° Southeast 357 411 13,000 48 Climbing Chicago Center
Wed 06:44:53 PM 41.5453 -87.6558 155° Southeast 371 427 13,000  Level Chicago Center
Wed 06:45:00 PM 41.6555 -87.7076 155° Southeast  Level FlightAware Approximate
Wed 06:45:55 PM 41.4506 -87.6017 157° South 369 425 13,000  Level Chicago Center
Wed 06:46:57 PM 41.3553 -87.5472 157° South 370 426 13,000  Level Chicago Center
Wed 06:47:59 PM 41.2600 -87.4914 156° South 372 428 13,000  Level Chicago Center
Wed 06:49:01 PM 41.1464 -87.4261 157° South 372 428 13,000  Level Chicago Center
Wed 06:50:03 PM 41.0514 -87.3731 157° South 371 427 13,000  Level Chicago Center
Wed 06:51:05 PM 40.9558 -87.3197 157° South 373 429 13,000  Level Chicago Center
Wed 06:52:07 PM 40.8611 -87.2658 157° South 371 427 13,000  Level Chicago Center
Wed 06:53:10 PM 40.7658 -87.2119 157° South 374 430 13,000  Level Chicago Center
Wed 06:54:12 PM 40.6514 -87.1481 157° South 373 429 13,000  Level Chicago Center
Wed 06:55:14 PM 40.5567 -87.0939 157° South 371 427 13,000  Level Chicago Center
Wed 06:56:16 PM 40.4556 -87.0381 157° South 373 429 13,000  Level Chicago Center
Wed 06:57:18 PM 40.3600 -86.9858 157° South 374 430 13,000  Level Chicago Center
Wed 06:58:20 PM 40.2658 -86.9319 156° South 370 426 13,000 -387 Level Chicago Center
Wed 06:59:22 PM 40.1711 -86.8775 156° South 373 429 12,200 -1,121 Descending Chicago Center
Wed 07:00:07 PM 40.1144 -86.7983 133° Southeast 372 428 11,000 -1,682 Descending Indianapolis Center
Wed 07:01:09 PM 40.0942 -86.6850 103° East 330 380 9,200 -1,645 Descending Indianapolis Center
Wed 07:02:11 PM 40.0792 -86.5814 101° East 300 345 7,600 -1,742 Descending Indianapolis Center
Wed 07:03:13 PM 40.0650 -86.4831 101° East 286 329 5,600 -1,463 Descending Indianapolis Center
Wed 07:04:14 PM 40.0486 -86.3733 101° East 280 322 4,600 -984 Descending Indianapolis Center

Login

Don't have an account? Register now (free) for customized features, flight alerts, and more!